Time;durP1;ratioP1;P1;durP2;ratioP2;P2;SDS_P1;SDS_P2;PMS_P1;PMS_P2;Temp;Humidity;BMP_temperature;BMP_pressure;BME280_temperature;BME280_humidity;BME280_pressure;Samples;Min_cycle;Max_cycle;Signal;HPM_P1;HPM_P2
2022/06/08 00:01:20;;;;;;;32.72;18.85;;;16.70;87.70;;;;;;5095846;28;20021;-70
2022/06/08 00:03:51;;;;;;;35.70;19.33;;;16.80;87.50;;;;;;5095774;28;20020;-70
2022/06/08 00:06:18;;;;;;;36.63;19.33;;;16.80;87.60;;;;;;5094714;28;20027;-70
2022/06/08 00:08:43;;;;;;;35.15;18.83;;;16.80;87.70;;;;;;5094637;28;20054;-70
2022/06/08 00:11:09;;;;;;;36.90;20.10;;;16.80;87.70;;;;;;5095602;28;20039;-70
2022/06/08 00:13:36;;;;;;;36.28;19.60;;;16.70;88.00;;;;;;5095556;28;20040;-70
2022/06/08 00:16:02;;;;;;;37.10;19.75;;;16.70;88.20;;;;;;5095474;28;20036;-70
2022/06/08 00:18:28;;;;;;;36.30;19.90;;;16.70;88.20;;;;;;5095626;28;20020;-70
2022/06/08 00:20:54;;;;;;;38.45;21.15;;;16.80;88.10;;;;;;5095433;28;20035;-70
2022/06/08 00:23:20;;;;;;;37.72;20.73;;;16.70;87.90;;;;;;5095385;28;20099;-70
2022/06/08 00:25:46;;;;;;;36.58;20.15;;;16.70;88.30;;;;;;5095335;28;20074;-71
2022/06/08 00:28:11;;;;;;;37.67;21.25;;;16.60;88.30;;;;;;5095192;28;20029;-70
2022/06/08 00:30:37;;;;;;;36.97;20.10;;;16.70;88.20;;;;;;5095231;28;20051;-70
2022/06/08 00:33:03;;;;;;;40.13;20.33;;;16.70;87.80;;;;;;5095205;28;20031;-70
2022/06/08 00:35:29;;;;;;;35.95;19.95;;;16.60;87.70;;;;;;5095097;28;20056;-70
2022/06/08 00:37:54;;;;;;;36.65;19.95;;;16.60;87.90;;;;;;5095083;28;20032;-70
2022/06/08 00:40:24;;;;;;;37.33;20.00;;;16.60;87.20;;;;;;5095065;28;20028;-70
2022/06/08 00:42:50;;;;;;;39.67;20.70;;;16.60;87.20;;;;;;5095035;28;20017;-70
2022/06/08 00:45:20;;;;;;;36.53;20.50;;;16.50;87.60;;;;;;5095081;28;20020;-70
2022/06/08 00:47:51;;;;;;;36.70;20.27;;;16.50;87.50;;;;;;5095013;28;20107;-70
2022/06/08 00:50:24;;;;;;;40.20;20.60;;;16.50;87.70;;;;;;5094949;28;20028;-70
2022/06/08 00:52:51;;;;;;;36.42;20.90;;;16.40;87.90;;;;;;5094891;28;20016;-70
2022/06/08 00:55:20;;;;;;;39.25;22.02;;;16.40;88.20;;;;;;5094650;28;20032;-70
2022/06/08 00:58:14;;;;;;;41.70;21.23;;;16.40;88.40;;;;;;5094689;28;20046;-70
2022/06/08 01:00:42;;;;;;;41.08;21.35;;;16.40;88.40;;;;;;5092953;28;20060;-70
2022/06/08 01:03:12;;;;;;;41.03;20.65;;;16.30;88.80;;;;;;5094589;28;20036;-70
2022/06/08 01:05:59;;;;;;;38.70;21.30;;;16.30;88.90;;;;;;5094508;28;20100;-70
2022/06/08 01:08:44;;;;;;;40.67;21.17;;;16.30;89.20;;;;;;5094519;28;20031;-70
2022/06/08 01:11:16;;;;;;;39.50;21.15;;;16.30;89.20;;;;;;5094526;28;20024;-71
2022/06/08 01:13:43;;;;;;;44.22;22.27;;;16.30;89.30;;;;;;5093369;28;20024;-70
2022/06/08 01:16:10;;;;;;;39.95;21.63;;;16.30;89.40;;;;;;5094266;28;20054;-70
2022/06/08 01:18:36;;;;;;;42.00;21.27;;;16.30;89.40;;;;;;5094291;28;20032;-70
2022/06/08 01:21:20;;;;;;;39.30;21.38;;;16.30;89.30;;;;;;5094229;28;20025;-71
2022/06/08 01:23:53;;;;;;;43.10;21.13;;;16.30;89.00;;;;;;5094136;28;20021;-70
2022/06/08 01:26:30;;;;;;;42.53;21.45;;;16.30;89.20;;;;;;5094179;28;20024;-70
2022/06/08 01:29:08;;;;;;;42.20;22.17;;;16.30;89.10;;;;;;5094060;28;20020;-70
2022/06/08 01:31:51;;;;;;;40.63;21.88;;;16.30;89.00;;;;;;5094149;28;20025;-70
2022/06/08 01:34:25;;;;;;;43.40;22.65;;;16.20;89.40;;;;;;5093986;28;20442;-71
2022/06/08 01:37:16;;;;;;;40.08;22.60;;;16.10;89.90;;;;;;5093977;28;20028;-70
2022/06/08 01:39:50;;;;;;;42.53;22.25;;;16.10;90.00;;;;;;5093776;28;20084;-70
2022/06/08 01:42:46;;;;;;;40.80;22.52;;;16.20;89.80;;;;;;5093852;28;20020;-70
2022/06/08 01:45:29;;;;;;;40.25;21.73;;;16.20;89.20;;;;;;5093946;28;20031;-70
2022/06/08 01:48:15;;;;;;;36.97;21.17;;;16.30;89.10;;;;;;5093889;28;20024;-71
2022/06/08 01:51:00;;;;;;;35.58;20.90;;;16.30;88.30;;;;;;5093767;28;20036;-70
2022/06/08 01:53:43;;;;;;;37.70;21.77;;;16.30;88.00;;;;;;5093627;28;20036;-70
2022/06/08 01:56:16;;;;;;;38.25;20.92;;;16.40;87.80;;;;;;5093563;28;20029;-70
2022/06/08 01:58:59;;;;;;;36.58;20.70;;;16.50;87.30;;;;;;5093490;28;20054;-71
2022/06/08 02:01:35;;;;;;;37.28;19.88;;;16.50;87.30;;;;;;5093297;28;20027;-70
2022/06/08 02:04:23;;;;;;;35.75;20.05;;;16.50;86.90;;;;;;5093613;28;20021;-70
2022/06/08 02:07:06;;;;;;;33.15;19.35;;;16.50;86.70;;;;;;5093668;28;20029;-70
2022/06/08 02:09:36;;;;;;;34.50;19.40;;;16.50;86.50;;;;;;5093539;28;20461;-70
2022/06/08 02:12:06;;;;;;;33.63;19.90;;;16.40;86.10;;;;;;5093511;28;20025;-71
2022/06/08 02:14:46;;;;;;;33.63;18.27;;;16.40;86.20;;;;;;5093440;28;20387;-70
2022/06/08 02:17:28;;;;;;;33.78;19.35;;;16.40;85.80;;;;;;5093335;28;20087;-71
2022/06/08 02:20:02;;;;;;;34.95;19.77;;;16.30;85.70;;;;;;5093497;28;20107;-71
2022/06/08 02:22:42;;;;;;;32.33;18.92;;;16.20;86.00;;;;;;5093389;28;20017;-70
2022/06/08 02:25:30;;;;;;;34.70;18.95;;;16.20;86.20;;;;;;5093438;28;20024;-71
2022/06/08 02:28:11;;;;;;;35.78;18.58;;;16.20;86.10;;;;;;5093194;28;20024;-71
2022/06/08 02:30:44;;;;;;;37.42;19.23;;;16.10;86.20;;;;;;5093304;28;20050;-70
2022/06/08 02:36:07;;;;;;;33.33;17.98;;;15.90;86.80;;;;;;5093344;28;20056;-70
2022/06/08 02:38:34;;;;;;;;;;;15.80;87.20;;;;;;5093607;28;20028;-70
2022/06/08 02:41:02;;;;;;;35.85;18.40;;;15.70;87.60;;;;;;5093112;28;19904;-70
2022/06/08 02:43:38;;;;;;;37.65;18.45;;;15.60;88.40;;;;;;5093097;28;20021;-70
2022/06/08 02:46:13;;;;;;;35.33;18.00;;;15.50;89.10;;;;;;5093110;28;20048;-70
2022/06/08 02:48:39;;;;;;;35.50;18.27;;;15.40;89.60;;;;;;5093095;28;20059;-71
2022/06/08 02:51:04;;;;;;;35.58;18.80;;;15.50;89.60;;;;;;5092998;28;20032;-70
2022/06/08 02:53:30;;;;;;;34.22;18.13;;;15.40;89.60;;;;;;5093013;28;20491;-71
2022/06/08 02:56:08;;;;;;;35.22;18.40;;;15.40;89.90;;;;;;5092901;28;20028;-70
2022/06/08 02:58:54;;;;;;;33.25;18.50;;;15.40;90.00;;;;;;5092753;28;20021;-71
2022/06/08 03:01:26;;;;;;;31.38;18.25;;;15.50;89.90;;;;;;5093074;28;20093;-70
2022/06/08 03:03:56;;;;;;;31.90;17.50;;;15.60;89.70;;;;;;5092978;28;20047;-70
2022/06/08 03:06:26;;;;;;;27.98;16.67;;;15.70;88.90;;;;;;5093030;28;20028;-70
2022/06/08 03:08:57;;;;;;;30.45;16.27;;;15.80;88.30;;;;;;5092967;28;20036;-70
2022/06/08 03:11:25;;;;;;;29.65;16.73;;;15.90;87.90;;;;;;5092877;28;20119;-70
2022/06/08 03:13:58;;;;;;;28.73;17.02;;;15.90;87.50;;;;;;5095698;28;20036;-71
2022/06/08 03:16:41;;;;;;;28.50;16.15;;;15.80;87.40;;;;;;5096610;28;20021;-70
2022/06/08 03:19:09;;;;;;;28.88;15.98;;;15.70;88.00;;;;;;5096616;28;20051;-70
2022/06/08 03:21:35;;;;;;;27.00;16.15;;;15.80;88.40;;;;;;5096554;28;20506;-71
2022/06/08 03:24:02;;;;;;;28.40;15.52;;;15.80;88.00;;;;;;5096552;28;20025;-70
2022/06/08 03:26:36;;;;;;;27.67;15.82;;;15.70;88.00;;;;;;5096441;28;20044;-71
2022/06/08 03:29:02;;;;;;;27.67;14.65;;;15.80;87.80;;;;;;5096325;28;20075;-71
2022/06/08 03:31:28;;;;;;;30.15;15.70;;;15.80;87.60;;;;;;5096338;28;20028;-71
2022/06/08 03:33:53;;;;;;;26.15;14.95;;;15.80;87.70;;;;;;5096287;28;20092;-70
2022/06/08 03:36:19;;;;;;;25.40;14.52;;;15.90;87.60;;;;;;5096204;28;20047;-71
2022/06/08 03:38:44;;;;;;;27.95;15.68;;;15.80;87.20;;;;;;5096227;28;20468;-70
2022/06/08 03:41:10;;;;;;;24.45;13.88;;;15.80;87.20;;;;;;5096146;28;20029;-70
2022/06/08 03:43:37;;;;;;;29.00;14.48;;;15.90;87.20;;;;;;5096123;28;20021;-70
2022/06/08 03:46:03;;;;;;;25.33;14.02;;;15.90;87.00;;;;;;5096135;28;20056;-70
2022/06/08 03:48:29;;;;;;;24.83;14.45;;;15.90;86.90;;;;;;5096057;28;20025;-70
2022/06/08 03:50:56;;;;;;;24.88;13.55;;;15.90;87.00;;;;;;5096052;28;20032;-70
2022/06/08 03:53:27;;;;;;;22.23;13.35;;;16.00;87.00;;;;;;5095948;28;20032;-71
2022/06/08 03:55:54;;;;;;;22.10;12.82;;;16.10;86.80;;;;;;5095924;28;20028;-70
2022/06/08 03:58:21;;;;;;;24.80;13.85;;;16.00;87.00;;;;;;5094883;28;20071;-71
2022/06/08 04:00:48;;;;;;;25.13;14.60;;;15.90;87.20;;;;;;5095692;28;20037;-70
2022/06/08 04:03:14;;;;;;;22.00;12.90;;;16.00;87.40;;;;;;5095637;28;20052;-70
2022/06/08 04:05:40;;;;;;;23.20;13.20;;;16.00;87.40;;;;;;5095763;28;20055;-70
2022/06/08 04:08:06;;;;;;;23.27;13.93;;;16.00;87.40;;;;;;5095710;28;20025;-70
2022/06/08 04:10:32;;;;;;;25.10;13.95;;;16.00;87.50;;;;;;5095751;28;20031;-70
2022/06/08 04:12:58;;;;;;;24.33;13.88;;;16.00;87.70;;;;;;5095643;28;20036;-70
2022/06/08 04:15:42;;;;;;;24.42;14.20;;;16.00;87.90;;;;;;5095525;28;20082;-70
2022/06/08 04:18:14;;;;;;;25.85;14.55;;;16.00;88.00;;;;;;5095707;28;20025;-71
2022/06/08 04:20:41;;;;;;;20.70;12.88;;;16.00;88.20;;;;;;5095576;28;20012;-71
2022/06/08 04:23:07;;;;;;;21.92;13.27;;;16.10;88.10;;;;;;5095124;28;20024;-70
2022/06/08 04:25:34;;;;;;;20.85;13.05;;;16.10;87.90;;;;;;5095384;28;20033;-70
2022/06/08 04:28:00;;;;;;;21.55;13.00;;;16.10;88.10;;;;;;5095278;28;20080;-70
2022/06/08 04:30:26;;;;;;;20.48;12.93;;;16.10;88.20;;;;;;5095333;28;20029;-71
2022/06/08 04:32:52;;;;;;;18.88;12.25;;;16.20;88.20;;;;;;5095125;28;20088;-70
2022/06/08 04:35:18;;;;;;;23.15;12.27;;;16.20;87.90;;;;;;5095123;28;20029;-71
2022/06/08 04:37:44;;;;;;;20.45;12.43;;;16.30;87.90;;;;;;5095124;28;20028;-71
2022/06/08 04:40:12;;;;;;;18.45;10.93;;;16.30;87.70;;;;;;5094156;28;20113;-71
2022/06/08 04:42:38;;;;;;;23.73;11.85;;;16.30;87.90;;;;;;5095061;28;20012;-71
2022/06/08 04:45:05;;;;;;;20.58;12.18;;;16.30;87.90;;;;;;5095045;28;20032;-71
2022/06/08 04:47:32;;;;;;;20.45;11.55;;;16.30;88.00;;;;;;5094915;28;20025;-71
2022/06/08 04:49:57;;;;;;;19.60;12.15;;;16.20;88.30;;;;;;5094921;28;20059;-71
2022/06/08 04:52:23;;;;;;;18.48;10.95;;;16.30;88.60;;;;;;5094858;28;20029;-71
2022/06/08 04:54:50;;;;;;;17.00;11.18;;;16.30;88.40;;;;;;5094818;28;20021;-71
2022/06/08 04:57:16;;;;;;;18.58;11.48;;;16.30;88.30;;;;;;5094691;28;20110;-71
2022/06/08 04:59:41;;;;;;;21.65;11.13;;;16.30;88.50;;;;;;5094528;28;20101;-71
2022/06/08 05:02:08;;;;;;;20.35;12.30;;;16.30;88.50;;;;;;5094679;28;20028;-71
2022/06/08 05:04:33;;;;;;;18.38;11.75;;;16.30;88.60;;;;;;5094474;28;20025;-71
2022/06/08 05:06:59;;;;;;;20.95;11.35;;;16.30;88.70;;;;;;5094542;28;20039;-71
2022/06/08 05:09:25;;;;;;;17.10;10.57;;;16.30;88.60;;;;;;5093483;28;20029;-71
2022/06/08 05:11:51;;;;;;;19.08;11.20;;;16.40;89.20;;;;;;5094422;28;20024;-71
2022/06/08 05:14:17;;;;;;;18.13;11.40;;;16.40;89.30;;;;;;5094394;28;20368;-71
2022/06/08 05:16:42;;;;;;;18.13;10.63;;;16.40;89.00;;;;;;5094267;28;20055;-71
2022/06/08 05:19:08;;;;;;;16.65;10.75;;;16.40;89.00;;;;;;5094273;28;20059;-71
2022/06/08 05:21:33;;;;;;;16.60;9.82;;;16.40;89.30;;;;;;5094215;28;20021;-71
2022/06/08 05:23:59;;;;;;;17.70;10.45;;;16.40;89.20;;;;;;5094229;28;20060;-71
2022/06/08 05:26:25;;;;;;;16.15;10.65;;;16.50;89.20;;;;;;5094123;28;20033;-71
2022/06/08 05:28:50;;;;;;;16.38;10.02;;;16.50;90.00;;;;;;5094049;28;20028;-71
2022/06/08 05:31:16;;;;;;;17.65;10.18;;;16.50;89.30;;;;;;5093075;28;20047;-71
2022/06/08 05:33:43;;;;;;;16.17;10.85;;;16.60;89.20;;;;;;5093996;28;20025;-71
2022/06/08 05:36:09;;;;;;;16.65;10.27;;;16.60;89.00;;;;;;5092173;28;20021;-71
2022/06/08 05:38:35;;;;;;;17.20;9.75;;;16.70;89.30;;;;;;5093900;28;20501;-71
2022/06/08 05:41:01;;;;;;;15.25;10.05;;;16.70;89.20;;;;;;5093816;28;20016;-71
2022/06/08 05:43:27;;;;;;;13.05;9.38;;;16.80;89.20;;;;;;5093796;28;20025;-70
2022/06/08 05:45:53;;;;;;;15.18;9.30;;;16.80;89.10;;;;;;5093711;28;20017;-69
2022/06/08 05:48:18;;;;;;;13.43;9.27;;;16.80;88.80;;;;;;5093688;28;20035;-71
2022/06/08 05:50:45;;;;;;;17.27;9.82;;;16.90;88.60;;;;;;5093669;28;20096;-72
2022/06/08 05:53:12;;;;;;;17.95;9.43;;;16.80;88.50;;;;;;5093624;28;20024;-72
2022/06/08 05:55:37;;;;;;;16.00;9.63;;;16.90;88.30;;;;;;5093506;28;20052;-69
2022/06/08 05:58:04;;;;;;;11.57;8.48;;;16.90;88.50;;;;;;5093473;28;20028;-69
2022/06/08 06:00:34;;;;;;;15.25;9.70;;;16.90;88.30;;;;;;5093366;28;20053;-69
2022/06/08 06:03:00;;;;;;;12.88;8.68;;;16.90;88.30;;;;;;5093443;28;20051;-69
2022/06/08 06:05:28;;;;;;;14.95;9.00;;;16.90;88.20;;;;;;5092372;28;20491;-69
2022/06/08 06:07:56;;;;;;;12.85;8.93;;;16.90;88.30;;;;;;5093303;28;20024;-69
2022/06/08 06:10:24;;;;;;;15.48;9.40;;;17.00;88.50;;;;;;5093370;28;20032;-69
2022/06/08 06:12:54;;;;;;;14.07;9.57;;;17.00;88.40;;;;;;5093353;28;20025;-69
2022/06/08 06:15:22;;;;;;;13.45;9.45;;;17.00;88.30;;;;;;5093436;28;20020;-71
2022/06/08 06:17:47;;;;;;;15.10;10.07;;;17.00;88.40;;;;;;5093349;28;20027;-72
2022/06/08 06:20:15;;;;;;;13.77;8.88;;;17.10;88.60;;;;;;5093190;28;20029;-69
2022/06/08 06:22:40;;;;;;;12.68;9.23;;;17.10;88.40;;;;;;5092145;28;20035;-69
2022/06/08 06:25:09;;;;;;;13.90;8.95;;;17.10;88.10;;;;;;5093074;28;20025;-68
2022/06/08 06:27:34;;;;;;;16.88;9.00;;;17.10;88.50;;;;;;5093095;28;20017;-69
2022/06/08 06:30:00;;;;;;;11.80;8.60;;;17.10;88.50;;;;;;5093075;28;20088;-69
2022/06/08 06:32:36;;;;;;;14.45;8.00;;;17.20;88.50;;;;;;5093163;28;20050;-69
2022/06/08 06:35:04;;;;;;;12.48;7.85;;;17.20;88.20;;;;;;5092984;28;20032;-68
2022/06/08 06:37:30;;;;;;;11.75;6.93;;;17.20;88.10;;;;;;5093227;28;20013;-68
2022/06/08 06:39:56;;;;;;;10.65;7.32;;;17.20;88.00;;;;;;5093045;28;20058;-69
2022/06/08 06:42:25;;;;;;;10.13;7.68;;;17.30;87.80;;;;;;5093048;28;20062;-69
2022/06/08 06:44:51;;;;;;;11.05;7.68;;;17.30;88.00;;;;;;5093002;28;20028;-69
2022/06/08 06:47:17;;;;;;;9.50;7.20;;;17.30;88.00;;;;;;5095056;28;20054;-69
2022/06/08 06:49:43;;;;;;;9.75;7.05;;;17.40;87.40;;;;;;5097099;28;20080;-69
2022/06/08 06:52:12;;;;;;;11.82;7.43;;;17.40;87.30;;;;;;5097162;28;20037;-70
2022/06/08 06:54:38;;;;;;;12.10;6.90;;;17.40;87.30;;;;;;5097030;28;20036;-69
2022/06/08 06:57:04;;;;;;;8.00;6.75;;;17.40;87.70;;;;;;5096034;28;20024;-69
2022/06/08 06:59:29;;;;;;;11.18;7.40;;;17.40;87.40;;;;;;5096728;28;20076;-69
2022/06/08 07:01:55;;;;;;;10.95;7.57;;;17.40;87.40;;;;;;5096992;28;20021;-69
2022/06/08 07:04:21;;;;;;;8.82;6.38;;;17.30;87.40;;;;;;5096725;28;20036;-69
2022/06/08 07:06:46;;;;;;;9.82;7.10;;;17.40;86.80;;;;;;5096847;28;20088;-68
2022/06/08 07:09:16;;;;;;;8.93;6.43;;;17.40;87.50;;;;;;5096788;28;20040;-69
2022/06/08 07:11:55;;;;;;;9.55;6.78;;;17.50;86.90;;;;;;5096608;28;20025;-70
2022/06/08 07:14:21;;;;;;;8.65;6.22;;;17.50;87.80;;;;;;5095514;28;20040;-69
2022/06/08 07:16:47;;;;;;;9.63;6.93;;;17.50;87.00;;;;;;5096543;28;20088;-71
2022/06/08 07:19:13;;;;;;;8.77;6.60;;;17.60;87.60;;;;;;5096547;28;20021;-71
2022/06/08 07:21:41;;;;;;;7.70;6.13;;;17.50;87.50;;;;;;5096623;28;20024;-70
2022/06/08 07:24:07;;;;;;;7.43;5.50;;;17.60;87.10;;;;;;5096418;28;20546;-70
2022/06/08 07:26:34;;;;;;;8.15;5.88;;;17.50;87.30;;;;;;5095413;28;20039;-71
2022/06/08 07:28:59;;;;;;;8.43;5.80;;;17.60;87.50;;;;;;5096270;28;20039;-71
2022/06/08 07:31:28;;;;;;;11.05;6.28;;;17.60;87.20;;;;;;5096386;28;20033;-70
2022/06/08 07:33:54;;;;;;;8.30;5.90;;;17.70;87.20;;;;;;5096113;28;20032;-70
2022/06/08 07:36:20;;;;;;;14.38;7.45;;;17.80;86.30;;;;;;5096233;28;20033;-70
2022/06/08 07:38:46;;;;;;;9.32;6.28;;;17.80;86.60;;;;;;5096190;28;20025;-70
2022/06/08 07:41:12;;;;;;;7.18;6.05;;;17.80;86.60;;;;;;5096155;28;20036;-70
2022/06/08 07:43:37;;;;;;;10.60;6.20;;;17.80;86.50;;;;;;5096100;28;20025;-70
2022/06/08 07:46:05;;;;;;;8.35;5.63;;;17.90;85.80;;;;;;5096056;28;20039;-70
2022/06/08 07:51:15;;;;;;;8.10;6.25;;;17.90;86.00;;;;;;5096077;28;20040;-70
2022/06/08 07:53:41;;;;;;;16.30;12.13;;;17.90;85.70;;;;;;5096015;28;20112;-70
2022/06/08 07:56:06;;;;;;;10.65;7.75;;;17.90;86.10;;;;;;5094926;28;20036;-69
2022/06/08 07:58:32;;;;;;;19.02;13.75;;;17.90;85.10;;;;;;5094980;28;20127;-70
2022/06/08 08:00:58;;;;;;;9.02;6.53;;;17.90;85.30;;;;;;5095594;28;20049;-71
2022/06/08 08:03:24;;;;;;;9.90;6.10;;;17.80;85.00;;;;;;5095731;28;20539;-69
2022/06/08 08:05:50;;;;;;;9.00;5.93;;;17.90;85.50;;;;;;5095691;28;20092;-69
2022/06/08 08:08:17;;;;;;;9.05;5.85;;;17.90;85.90;;;;;;5095661;28;20036;-69
2022/06/08 08:10:43;;;;;;;10.00;5.60;;;17.90;85.60;;;;;;5095576;28;20150;-71
2022/06/08 08:13:09;;;;;;;10.52;6.25;;;18.00;85.30;;;;;;5095602;28;20048;-71
2022/06/08 08:15:35;;;;;;;8.88;6.53;;;18.10;85.70;;;;;;5094521;28;20036;-71
2022/06/08 08:18:01;;;;;;;9.50;5.97;;;18.10;86.00;;;;;;5094430;28;20025;-71
2022/06/08 08:20:30;;;;;;;11.18;6.38;;;18.20;85.40;;;;;;5095540;28;20055;-71
2022/06/08 08:22:56;;;;;;;10.20;5.93;;;18.30;84.90;;;;;;5095491;28;20040;-71
2022/06/08 08:25:23;;;;;;;8.77;5.97;;;18.30;84.00;;;;;;5095329;28;20020;-71
2022/06/08 08:27:49;;;;;;;8.35;5.60;;;18.30;84.20;;;;;;5095188;28;20179;-71
2022/06/08 08:30:19;;;;;;;8.80;5.47;;;18.40;84.40;;;;;;5095116;28;20032;-71
2022/06/08 08:32:52;;;;;;;8.50;5.07;;;18.50;83.90;;;;;;5095351;28;20047;-71
2022/06/08 08:35:18;;;;;;;17.98;11.10;;;18.60;83.30;;;;;;5095354;28;20058;-71
2022/06/08 08:37:45;;;;;;;8.75;5.25;;;18.60;82.80;;;;;;5095124;28;20036;-71
2022/06/08 08:40:30;;;;;;;8.60;5.47;;;18.60;82.30;;;;;;5095137;28;20420;-71
2022/06/08 08:42:57;;;;;;;9.90;5.18;;;18.70;82.90;;;;;;5095132;28;20020;-70
2022/06/08 08:45:23;;;;;;;9.35;5.70;;;18.80;82.40;;;;;;5095021;28;20032;-73
2022/06/08 08:48:05;;;;;;;6.85;4.53;;;18.80;82.50;;;;;;5093958;28;20036;-74
2022/06/08 08:50:41;;;;;;;7.85;4.90;;;18.90;81.60;;;;;;5094973;28;20031;-73
2022/06/08 08:53:24;;;;;;;9.43;4.75;;;19.00;81.90;;;;;;5094780;28;20024;-76
2022/06/08 08:56:03;;;;;;;7.25;5.10;;;19.00;81.00;;;;;;5094669;28;20020;-70
2022/06/08 08:58:33;;;;;;;9.15;4.35;;;19.00;82.00;;;;;;5094756;28;20046;-71
2022/06/08 09:01:02;;;;;;;6.22;4.03;;;19.00;81.80;;;;;;5094530;28;20060;-71
2022/06/08 09:03:48;;;;;;;8.13;3.78;;;19.10;80.80;;;;;;5093597;28;20474;-71
2022/06/08 09:06:23;;;;;;;8.07;4.13;;;19.20;79.80;;;;;;5094581;28;20023;-69
2022/06/08 09:09:02;;;;;;;8.15;3.80;;;19.10;79.40;;;;;;5094751;28;20090;-69
2022/06/08 09:11:43;;;;;;;7.43;3.97;;;19.00;80.30;;;;;;5093540;28;20081;-69
2022/06/08 09:14:51;;;;;;;7.85;3.88;;;19.00;80.60;;;;;;5093522;28;20039;-69
2022/06/08 09:17:34;;;;;;;11.85;4.10;;;19.10;79.80;;;;;;5093376;28;20029;-69
2022/06/08 09:20:03;;;;;;;9.32;4.10;;;19.10;80.10;;;;;;5093202;28;20092;-68
2022/06/08 09:22:31;;;;;;;6.75;3.42;;;19.10;81.00;;;;;;5094265;28;20499;-68
2022/06/08 09:25:03;;;;;;;7.18;3.60;;;19.10;79.60;;;;;;5094304;28;20451;-68
2022/06/08 09:27:38;;;;;;;6.85;3.90;;;19.10;79.00;;;;;;5094165;28;20024;-68
2022/06/08 09:30:13;;;;;;;6.13;3.47;;;19.10;78.90;;;;;;5094114;28;20020;-69
2022/06/08 09:32:49;;;;;;;6.18;3.97;;;19.20;78.60;;;;;;5094036;28;20053;-69
2022/06/08 09:35:39;;;;;;;5.68;3.90;;;19.20;78.90;;;;;;5093926;28;20027;-69
2022/06/08 09:38:30;;;;;;;6.70;4.20;;;19.20;80.30;;;;;;5093955;28;20016;-68
2022/06/08 09:41:38;;;;;;;9.38;3.90;;;19.20;80.70;;;;;;5093291;28;20063;-68
2022/06/08 09:44:15;;;;;;;6.93;3.65;;;19.30;79.00;;;;;;5116916;28;20032;-69
2022/06/08 09:53:34;;;;;;;7.07;3.50;;;19.20;79.40;;;;;;5032153;28;20053;-69
2022/06/08 09:56:19;;;;;;;9.57;3.88;;;19.20;78.20;;;;;;5032057;28;20037;-68
2022/06/08 09:59:33;;;;;;;6.85;3.70;;;19.20;78.10;;;;;;5089511;28;20052;-70
2022/06/08 10:02:18;;;;;;;6.93;3.70;;;19.20;77.90;;;;;;5093714;28;20040;-70
2022/06/08 10:04:59;;;;;;;7.18;3.30;;;19.10;78.60;;;;;;5093519;28;20025;-70
2022/06/08 10:07:46;;;;;;;9.45;3.88;;;19.30;78.20;;;;;;5093622;28;20017;-70
2022/06/08 10:10:23;;;;;;;7.80;3.97;;;19.30;79.10;;;;;;5092446;28;20479;-71
2022/06/08 10:13:00;;;;;;;5.55;3.28;;;19.20;78.70;;;;;;5092908;28;20048;-71
2022/06/08 10:15:39;;;;;;;7.03;3.20;;;19.10;77.80;;;;;;5093327;28;20029;-71
2022/06/08 10:18:05;;;;;;;6.65;3.83;;;19.00;77.80;;;;;;5093423;28;20028;-71
2022/06/08 10:20:50;;;;;;;6.70;3.80;;;19.00;78.70;;;;;;5093398;28;20044;-71
2022/06/08 10:23:42;;;;;;;8.15;3.95;;;19.00;79.40;;;;;;5093145;28;20021;-71
2022/06/08 10:26:26;;;;;;;8.77;3.67;;;19.00;77.80;;;;;;5093280;28;20058;-71
2022/06/08 10:29:01;;;;;;;8.75;3.40;;;18.90;78.30;;;;;;5093200;28;20029;-71
2022/06/08 10:31:44;;;;;;;7.82;3.25;;;18.90;78.00;;;;;;5093229;28;20104;-70
2022/06/08 10:34:18;;;;;;;6.10;3.28;;;18.80;77.00;;;;;;5093243;28;20029;-70
2022/06/08 10:36:49;;;;;;;8.55;3.40;;;18.70;77.30;;;;;;5093101;28;20020;-70
2022/06/08 10:39:15;;;;;;;7.45;3.38;;;18.70;78.60;;;;;;5093169;28;20021;-70
2022/06/08 10:44:51;;;;;;;9.43;4.00;;;18.50;80.30;;;;;;5093307;28;20111;-70
2022/06/08 10:47:27;;;;;;;8.68;4.07;;;18.40;81.30;;;;;;5093010;28;20028;-71
2022/06/08 10:50:03;;;;;;;10.60;4.13;;;18.40;82.20;;;;;;5093171;28;20029;-70
2022/06/08 10:52:49;;;;;;;6.07;3.47;;;18.30;82.60;;;;;;5092963;28;20040;-71
2022/06/08 10:55:15;;;;;;;10.40;4.07;;;18.20;82.70;;;;;;5092885;28;20036;-70
2022/06/08 10:57:50;;;;;;;7.35;3.50;;;18.10;82.20;;;;;;5092929;28;20508;-71
2022/06/08 11:00:18;;;;;;;10.30;4.00;;;18.00;82.30;;;;;;5092673;28;20056;-71
2022/06/08 11:02:51;;;;;;;5.57;3.08;;;17.90;83.20;;;;;;5091570;28;20044;-71
2022/06/08 11:05:32;;;;;;;6.90;3.30;;;17.90;83.30;;;;;;5092999;28;20017;-71
2022/06/08 11:08:06;;;;;;;9.20;3.72;;;17.80;84.10;;;;;;5092905;28;20036;-72
2022/06/08 11:10:44;;;;;;;6.80;3.53;;;17.80;84.40;;;;;;5092906;28;20016;-71
2022/06/08 11:13:38;;;;;;;9.88;3.58;;;17.70;85.20;;;;;;5092783;28;20020;-71
2022/06/08 11:16:27;;;;;;;8.25;3.58;;;17.70;86.00;;;;;;5092718;28;20028;-71
2022/06/08 11:19:10;;;;;;;7.20;3.80;;;17.70;85.40;;;;;;5091718;28;20025;-71
2022/06/08 11:21:50;;;;;;;8.52;3.67;;;17.70;85.90;;;;;;5092850;28;20021;-71
2022/06/08 11:24:23;;;;;;;9.23;3.78;;;17.70;85.60;;;;;;5092717;28;20025;-71
2022/06/08 11:26:53;;;;;;;;;;;17.70;86.30;;;;;;5093239;28;20021;-71
2022/06/08 11:29:21;;;;;;;6.45;3.58;;;17.70;85.90;;;;;;5092569;28;19967;-71
2022/06/08 11:31:52;;;;;;;6.75;3.55;;;17.70;86.40;;;;;;5092626;28;20020;-71
2022/06/08 11:34:21;;;;;;;8.45;3.97;;;17.60;86.40;;;;;;5094642;28;20017;-71
2022/06/08 11:36:59;;;;;;;6.05;3.75;;;17.70;86.70;;;;;;5096198;28;20036;-71
2022/06/08 11:39:34;;;;;;;11.43;3.92;;;17.70;87.40;;;;;;5096247;28;20016;-71
2022/06/08 11:42:29;;;;;;;8.45;4.07;;;17.70;86.70;;;;;;5096352;28;20024;-71
2022/06/08 11:44:57;;;;;;;9.32;4.30;;;17.60;87.80;;;;;;5096154;28;20092;-71
2022/06/08 11:47:35;;;;;;;8.88;3.92;;;17.60;88.30;;;;;;5096020;28;20036;-71
2022/06/08 11:50:00;;;;;;;7.93;3.97;;;17.70;87.90;;;;;;5096027;28;20036;-71
2022/06/08 11:52:36;;;;;;;8.45;4.18;;;17.60;88.20;;;;;;5095988;28;20095;-71
2022/06/08 11:55:12;;;;;;;6.47;4.00;;;17.70;87.80;;;;;;5096000;28;20055;-71
2022/06/08 11:57:58;;;;;;;7.45;3.55;;;17.70;87.80;;;;;;5095907;28;20040;-71
2022/06/08 12:00:31;;;;;;;7.40;4.00;;;17.60;88.00;;;;;;5095666;28;20032;-71
2022/06/08 12:03:01;;;;;;;8.95;3.80;;;17.60;87.10;;;;;;5095847;28;20088;-71
2022/06/08 12:05:31;;;;;;;10.80;2.72;;;17.50;87.10;;;;;;5095757;28;20104;-71
2022/06/08 12:08:03;;;;;;;8.30;3.40;;;17.50;86.30;;;;;;5095736;28;20020;-71
2022/06/08 12:10:33;;;;;;;7.47;2.85;;;17.40;86.80;;;;;;5095822;28;20151;-71
2022/06/08 12:12:59;;;;;;;4.65;2.67;;;17.40;86.30;;;;;;5095727;28;20016;-71
2022/06/08 12:15:38;;;;;;;8.25;3.78;;;17.40;86.30;;;;;;5095482;28;20029;-71
2022/06/08 12:18:27;;;;;;;4.82;2.72;;;17.30;86.20;;;;;;5095550;28;20047;-71
2022/06/08 12:21:19;;;;;;;8.73;2.97;;;17.20;85.80;;;;;;5095517;28;20025;-71
2022/06/08 12:24:11;;;;;;;7.32;3.30;;;17.20;86.40;;;;;;5095474;28;20024;-71
2022/06/08 12:26:59;;;;;;;4.93;3.00;;;17.30;87.20;;;;;;5087325;28;20044;-71
2022/06/08 12:29:39;;;;;;;3.95;2.03;;;17.30;86.50;;;;;;5095279;28;20046;-71
2022/06/08 12:32:08;;;;;;;3.05;2.10;;;17.20;85.20;;;;;;5095456;28;20025;-71
2022/06/08 12:34:40;;;;;;;9.43;2.45;;;17.20;85.10;;;;;;5095228;28;20058;-71
2022/06/08 12:37:28;;;;;;;6.20;2.22;;;17.20;85.50;;;;;;5095183;28;20025;-71
2022/06/08 12:40:16;;;;;;;4.60;2.42;;;17.20;85.90;;;;;;5095130;28;20021;-71
2022/06/08 12:42:52;;;;;;;9.20;3.30;;;17.20;85.80;;;;;;5095219;28;20053;-71
2022/06/08 12:46:02;;;;;;;6.72;2.50;;;17.20;86.60;;;;;;5094880;28;20080;-71
2022/06/08 12:48:42;;;;;;;7.57;2.42;;;17.20;86.20;;;;;;5094850;28;20021;-71
2022/06/08 12:51:22;;;;;;;5.43;2.38;;;17.10;86.50;;;;;;5093928;28;20019;-71
2022/06/08 12:53:48;;;;;;;4.32;2.53;;;17.00;87.80;;;;;;5094931;28;20042;-71
2022/06/08 12:56:13;;;;;;;5.22;2.55;;;17.00;87.10;;;;;;5094670;28;20040;-71
2022/06/08 12:58:39;;;;;;;7.38;2.83;;;16.90;86.90;;;;;;5094717;28;20017;-71
2022/06/08 13:01:09;;;;;;;4.10;2.60;;;16.90;87.50;;;;;;5094560;28;20049;-70
2022/06/08 13:03:35;;;;;;;6.07;2.53;;;17.00;87.80;;;;;;5094875;28;20028;-71
2022/06/08 13:06:01;;;;;;;5.35;2.85;;;17.10;87.40;;;;;;5094585;28;20031;-71
2022/06/08 13:08:28;;;;;;;7.72;3.03;;;17.00;88.50;;;;;;5094512;28;20032;-71
2022/06/08 13:11:00;;;;;;;5.50;2.83;;;17.00;88.70;;;;;;5094466;28;20079;-71
2022/06/08 13:13:29;;;;;;;4.35;2.60;;;17.00;88.50;;;;;;5094514;28;20032;-71
2022/06/08 13:15:57;;;;;;;4.57;2.83;;;17.00;88.60;;;;;;5094301;28;20046;-71
2022/06/08 13:18:28;;;;;;;5.85;3.00;;;17.00;88.90;;;;;;5094346;28;20032;-71